createdAt,value
2023-02-02T00:01:26.795Z,85.87
2023-02-02T00:04:42.764Z,85.51
2023-02-02T00:07:44.616Z,84.50
2023-02-02T00:10:59.791Z,83.76
2023-02-02T00:14:01.591Z,83.25
2023-02-02T00:17:23.799Z,83.96
2023-02-02T00:20:31.775Z,84.16
2023-02-02T00:23:40.485Z,82.93
2023-02-02T00:26:49.880Z,83.16
2023-02-02T00:29:58.475Z,82.33
2023-02-02T00:33:06.804Z,81.99
2023-02-02T00:36:16.565Z,82.32
2023-02-02T00:39:32.776Z,81.37
2023-02-02T00:42:41.399Z,80.78
2023-02-02T00:45:49.819Z,81.70
2023-02-02T00:48:58.363Z,81.77
2023-02-02T00:52:06.819Z,81.12
2023-02-02T00:55:26.149Z,79.56
2023-02-02T00:58:28.321Z,78.50
2023-02-02T01:01:42.829Z,78.18
2023-02-02T01:04:44.855Z,78.04
2023-02-02T01:07:59.783Z,78.60
2023-02-02T01:11:14.784Z,78.22
2023-02-02T01:14:29.817Z,79.46
2023-02-02T01:17:44.807Z,81.22
2023-02-02T01:20:58.512Z,81.34
2023-02-02T01:24:12.795Z,81.55
2023-02-02T01:27:14.767Z,82.00
2023-02-02T01:30:29.841Z,81.60
2023-02-02T01:33:33.665Z,83.01
2023-02-02T01:36:48.823Z,82.54
2023-02-02T01:39:56.838Z,82.28
2023-02-02T01:43:21.929Z,81.83
2023-02-02T01:46:33.788Z,83.21
2023-02-02T01:49:42.815Z,82.00
2023-02-02T01:52:55.915Z,81.07
2023-02-02T01:56:14.824Z,78.22
2023-02-02T01:59:23.819Z,78.87
2023-02-02T02:02:38.902Z,77.63
2023-02-02T02:05:54.211Z,77.64
2023-02-02T02:09:06.771Z,78.81
2023-02-02T02:12:22.835Z,77.95
2023-02-02T02:15:25.172Z,78.35
2023-02-02T02:19:20.818Z,77.90
2023-02-02T02:22:27.841Z,79.07
2023-02-02T02:26:02.842Z,80.57
2023-02-02T02:29:35.272Z,81.05
2023-02-02T02:33:14.871Z,81.63
2023-02-02T02:36:32.837Z,82.71
2023-02-02T02:39:58.028Z,83.05
2023-02-02T02:43:12.849Z,83.33
2023-02-02T02:46:22.234Z,83.34
2023-02-02T02:49:36.861Z,84.29
2023-02-02T02:52:40.365Z,83.86
2023-02-02T02:56:12.816Z,84.86
2023-02-02T02:59:56.841Z,85.41
2023-02-02T03:03:16.299Z,85.83
2023-02-02T03:06:39.889Z,85.93
2023-02-02T03:09:50.874Z,86.58
2023-02-02T03:12:59.884Z,85.82
2023-02-02T03:16:23.862Z,86.51
2023-02-02T03:19:25.713Z,86.58
2023-02-02T03:22:41.812Z,86.94
2023-02-02T03:25:43.658Z,87.83
2023-02-02T03:29:01.854Z,88.57
2023-02-02T03:32:10.864Z,88.31
2023-02-02T03:35:19.671Z,88.21
2023-02-02T03:38:27.848Z,87.83
2023-02-02T03:41:36.648Z,87.86
2023-02-02T03:44:44.849Z,87.79
2023-02-02T03:47:53.516Z,87.82
2023-02-02T03:51:01.851Z,87.49
2023-02-02T03:54:11.455Z,87.74
2023-02-02T03:57:19.886Z,87.77
2023-02-02T04:00:34.870Z,87.67
2023-02-02T04:03:37.844Z,87.40
2023-02-02T04:06:52.860Z,87.51
2023-02-02T04:09:54.714Z,86.93
2023-02-02T04:13:09.847Z,87.14
2023-02-02T04:16:12.759Z,87.27
2023-02-02T04:19:34.876Z,86.05
2023-02-02T04:22:36.697Z,86.22
2023-02-02T04:25:59.837Z,86.35
2023-02-02T04:29:07.864Z,86.12
2023-02-02T04:32:24.845Z,86.41
2023-02-02T04:35:26.893Z,86.33
2023-02-02T04:38:42.853Z,86.69
2023-02-02T04:41:44.899Z,86.34
2023-02-02T04:44:59.836Z,85.81
2023-02-02T04:48:02.326Z,85.46
2023-02-02T04:51:19.840Z,85.82
2023-02-02T04:54:27.896Z,85.45
2023-02-02T04:57:36.472Z,85.18
2023-02-02T05:00:44.937Z,85.48
2023-02-02T05:03:53.662Z,84.34
2023-02-02T05:07:01.908Z,83.96
2023-02-02T05:10:11.309Z,83.11
2023-02-02T05:13:19.904Z,83.15
2023-02-02T05:16:35.158Z,83.79
2023-02-02T05:19:49.944Z,83.92
2023-02-02T05:22:51.827Z,83.58
2023-02-02T05:26:06.896Z,83.04
2023-02-02T05:29:14.908Z,83.79
2023-02-02T05:32:23.976Z,82.85
2023-02-02T05:35:38.890Z,81.97
2023-02-02T05:38:47.564Z,82.04
2023-02-02T05:42:01.896Z,81.90
2023-02-02T05:45:10.892Z,83.03
2023-02-02T05:48:26.880Z,83.05
2023-02-02T05:51:38.880Z,82.61
2023-02-02T05:54:47.549Z,79.47
2023-02-02T05:58:01.873Z,82.13
2023-02-02T06:01:04.197Z,82.27
2023-02-02T06:04:19.887Z,81.04
2023-02-02T06:07:34.911Z,80.93
2023-02-02T06:10:40.645Z,80.12
2023-02-02T06:13:54.943Z,79.43
2023-02-02T06:16:56.826Z,80.21
2023-02-02T06:20:12.891Z,80.47
2023-02-02T06:23:14.852Z,79.83
2023-02-02T06:26:31.045Z,79.89
2023-02-02T06:29:45.888Z,79.85
2023-02-02T06:32:54.540Z,80.19
2023-02-02T06:36:06.903Z,79.46
2023-02-02T06:39:15.951Z,79.66
2023-02-02T06:42:24.973Z,79.00
2023-02-02T06:45:39.956Z,79.79
2023-02-02T06:48:48.875Z,79.56
2023-02-02T06:52:03.957Z,78.28
2023-02-02T06:55:06.122Z,79.08
2023-02-02T06:58:20.980Z,79.08
2023-02-02T07:01:29.917Z,78.46
2023-02-02T07:04:47.453Z,78.64
2023-02-02T07:07:57.958Z,77.66
2023-02-02T07:11:13.348Z,77.36
2023-02-02T07:14:29.901Z,77.79
2023-02-02T07:17:38.267Z,78.01
2023-02-02T07:20:52.909Z,77.60
2023-02-02T07:24:09.988Z,76.25
2023-02-02T07:27:17.953Z,71.85
2023-02-02T07:30:32.979Z,71.96
2023-02-02T07:33:34.988Z,72.20
2023-02-02T07:36:49.965Z,72.07
2023-02-02T07:39:51.878Z,74.61
2023-02-02T07:43:06.986Z,76.37
2023-02-02T07:46:24.012Z,72.91
2023-02-02T07:49:32.024Z,72.24
2023-02-02T07:52:53.948Z,75.16
2023-02-02T07:56:13.786Z,70.13
2023-02-02T07:59:32.207Z,65.29
2023-02-02T08:02:41.183Z,67.87
2023-02-02T08:05:49.699Z,65.06
2023-02-02T08:09:04.995Z,66.57
2023-02-02T08:12:14.073Z,66.49
2023-02-02T08:15:30.015Z,68.08
2023-02-02T08:18:38.606Z,68.34
2023-02-02T08:21:52.960Z,66.76
2023-02-02T08:24:55.133Z,68.84
2023-02-02T08:28:23.959Z,66.54
2023-02-02T08:31:34.303Z,68.11
2023-02-02T08:34:49.955Z,66.22
2023-02-02T08:37:59.013Z,62.05
2023-02-02T08:41:16.067Z,62.23
2023-02-02T08:44:17.896Z,62.32
2023-02-02T08:47:46.334Z,60.76
2023-02-02T08:51:00.005Z,60.56
2023-02-02T08:54:09.143Z,60.42
2023-02-02T08:57:18.026Z,63.55
2023-02-02T09:00:29.830Z,60.33
2023-02-02T09:03:39.079Z,59.97
2023-02-02T09:06:54.044Z,59.46
2023-02-02T09:09:56.594Z,58.96
2023-02-02T09:13:17.998Z,58.77
2023-02-02T09:16:28.032Z,59.10
2023-02-02T09:19:42.956Z,59.09
2023-02-02T09:22:44.942Z,57.98
2023-02-02T09:26:01.168Z,57.25
2023-02-02T09:29:22.075Z,58.59
2023-02-02T09:32:24.032Z,55.81
2023-02-02T09:35:38.988Z,54.47
2023-02-02T09:38:41.909Z,55.94
2023-02-02T09:42:13.015Z,54.94
2023-02-02T09:45:45.023Z,52.67
2023-02-02T09:49:09.001Z,53.62
2023-02-02T09:52:25.040Z,53.52
2023-02-02T09:55:38.767Z,55.11
2023-02-02T09:58:56.061Z,53.76
2023-02-02T10:02:22.028Z,53.54
2023-02-02T10:05:36.201Z,55.16
2023-02-02T10:09:00.012Z,53.05
2023-02-02T10:12:42.316Z,53.12
2023-02-02T10:16:13.831Z,54.67
2023-02-02T10:19:23.097Z,55.54
2023-02-02T10:22:34.114Z,56.38
2023-02-02T10:29:15.117Z,54.57
2023-02-02T10:33:10.113Z,57.39
2023-02-02T10:36:34.529Z,58.67
2023-02-02T10:40:03.061Z,56.07
2023-02-02T10:43:36.071Z,57.71
2023-02-02T10:46:57.032Z,57.38
2023-02-02T10:50:23.301Z,56.37
2023-02-02T10:53:40.018Z,56.77
2023-02-02T10:56:51.164Z,56.23
2023-02-02T11:00:29.191Z,57.08
2023-02-02T11:03:32.754Z,56.34
2023-02-02T11:06:49.231Z,56.80
2023-02-02T11:10:01.455Z,56.38
2023-02-02T11:13:32.033Z,55.97
2023-02-02T11:16:44.416Z,55.89
2023-02-02T11:19:54.078Z,55.99
2023-02-02T11:23:13.082Z,55.44
2023-02-02T11:26:22.190Z,55.93
2023-02-02T11:29:54.039Z,54.61
2023-02-02T11:33:31.770Z,53.65
2023-02-02T11:36:40.144Z,55.12
2023-02-02T11:39:48.907Z,55.28
2023-02-02T11:43:08.210Z,55.02
2023-02-02T11:46:21.161Z,54.36
2023-02-02T11:49:31.154Z,56.73
2023-02-02T11:52:46.400Z,53.94
2023-02-02T11:55:48.948Z,55.36
2023-02-02T11:59:05.015Z,55.22
2023-02-02T12:05:47.040Z,56.17
2023-02-02T12:08:51.190Z,57.59
2023-02-02T12:12:38.120Z,57.17
2023-02-02T12:15:59.143Z,56.98
2023-02-02T12:19:28.453Z,57.93
2023-02-02T12:23:04.441Z,57.34
2023-02-02T12:26:39.169Z,57.94
2023-02-02T12:30:04.418Z,57.15
2023-02-02T12:33:46.057Z,56.28
2023-02-02T12:41:15.068Z,57.89
2023-02-02T12:44:59.141Z,58.17
2023-02-02T12:48:32.474Z,57.93
2023-02-02T12:52:02.125Z,58.25
2023-02-02T12:55:31.150Z,57.06
2023-02-02T12:59:07.107Z,57.20
2023-02-02T13:02:33.123Z,58.05
2023-02-02T13:06:34.193Z,57.89
2023-02-02T13:10:05.267Z,57.87
2023-02-02T13:13:36.085Z,57.77
2023-02-02T13:16:55.153Z,57.84
2023-02-02T13:20:02.181Z,57.88
2023-02-02T13:23:34.083Z,58.37
2023-02-02T13:26:45.785Z,59.13
2023-02-02T13:30:08.143Z,59.06
2023-02-02T13:33:34.192Z,59.87
2023-02-02T13:36:36.692Z,59.22
2023-02-02T13:40:01.105Z,59.60
2023-02-02T13:43:25.445Z,59.77
2023-02-02T13:46:55.117Z,59.88
2023-02-02T13:50:11.134Z,59.62
2023-02-02T13:53:40.747Z,59.99
2023-02-02T13:57:24.075Z,60.32
2023-02-02T14:00:44.755Z,59.83
2023-02-02T14:04:02.130Z,59.98
2023-02-02T14:07:17.108Z,60.21
2023-02-02T14:10:57.402Z,60.23
2023-02-02T14:14:21.115Z,59.74
2023-02-02T14:17:58.081Z,60.54
2023-02-02T14:21:00.096Z,60.25
2023-02-02T14:24:45.213Z,60.58
2023-02-02T14:27:57.936Z,59.97
2023-02-02T14:31:33.410Z,60.80
2023-02-02T14:34:45.133Z,61.16
2023-02-02T14:38:11.140Z,60.78
2023-02-02T14:41:31.372Z,60.63
2023-02-02T14:45:26.687Z,60.89
2023-02-02T14:48:43.177Z,61.54
2023-02-02T14:51:56.296Z,61.27
2023-02-02T14:55:05.389Z,61.50
2023-02-02T14:58:31.139Z,60.79
2023-02-02T15:01:37.248Z,60.94
2023-02-02T15:04:53.114Z,61.49
2023-02-02T15:08:23.114Z,61.10
2023-02-02T15:12:18.200Z,61.32
2023-02-02T15:15:35.182Z,61.64
2023-02-02T15:18:47.985Z,62.46
2023-02-02T15:22:01.274Z,61.16
2023-02-02T15:25:28.432Z,62.05
2023-02-02T15:28:44.770Z,62.64
2023-02-02T15:32:02.201Z,63.18
2023-02-02T15:35:21.179Z,63.20
2023-02-02T15:38:35.589Z,62.56
2023-02-02T15:41:50.133Z,64.94
2023-02-02T15:45:05.148Z,60.18
2023-02-02T15:48:18.624Z,62.21
2023-02-02T15:51:33.125Z,63.41
2023-02-02T15:54:36.074Z,63.79
2023-02-02T15:57:53.807Z,63.63
2023-02-02T16:01:06.186Z,64.75
2023-02-02T16:04:34.248Z,63.29
2023-02-02T16:08:03.746Z,65.25
2023-02-02T16:11:17.120Z,66.32
2023-02-02T16:14:26.220Z,67.32
2023-02-02T16:17:41.122Z,67.86
2023-02-02T16:20:52.145Z,67.90
2023-02-02T16:24:09.149Z,67.87
2023-02-02T16:27:21.173Z,67.68
2023-02-02T16:30:35.084Z,67.88
2023-02-02T16:33:50.125Z,68.12
2023-02-02T16:37:07.968Z,67.66
2023-02-02T16:40:36.173Z,67.99
2023-02-02T16:43:52.209Z,68.18
2023-02-02T16:46:54.380Z,68.71
2023-02-02T16:50:31.269Z,68.77
2023-02-02T16:53:41.135Z,68.64
2023-02-02T16:57:05.150Z,68.98
2023-02-02T17:00:30.184Z,68.39
2023-02-02T17:03:51.214Z,68.70
2023-02-02T17:07:17.136Z,68.15
2023-02-02T17:10:37.218Z,68.25
2023-02-02T17:13:53.187Z,68.59
2023-02-02T17:17:05.289Z,68.24
2023-02-02T17:20:14.271Z,68.69
2023-02-02T17:23:25.613Z,68.85
2023-02-02T17:26:34.254Z,68.87
2023-02-02T17:29:46.396Z,68.81
2023-02-02T17:32:55.161Z,69.11
2023-02-02T17:36:12.174Z,69.33
2023-02-02T17:39:14.070Z,69.33
2023-02-02T17:42:33.174Z,68.43
2023-02-02T17:45:42.451Z,68.82
2023-02-02T17:48:51.221Z,68.08
2023-02-02T17:52:10.217Z,68.45
2023-02-02T17:55:30.151Z,69.03
2023-02-02T17:58:45.266Z,68.90
2023-02-02T18:01:47.996Z,69.52
2023-02-02T18:05:03.162Z,69.89
2023-02-02T18:08:05.710Z,69.69
2023-02-02T18:11:21.271Z,69.77
2023-02-02T18:14:23.417Z,70.10
2023-02-02T18:17:39.202Z,70.14
2023-02-02T18:20:49.207Z,70.89
2023-02-02T18:23:57.938Z,70.63
2023-02-02T18:27:06.249Z,71.26
2023-02-02T18:30:15.322Z,71.64
2023-02-02T18:33:24.282Z,72.18
2023-02-02T18:36:39.199Z,72.46
2023-02-02T18:39:41.672Z,72.88
2023-02-02T18:42:56.163Z,71.95
2023-02-02T18:46:03.706Z,72.09
2023-02-02T18:49:19.179Z,72.34
2023-02-02T18:52:21.279Z,71.93
2023-02-02T18:55:36.187Z,72.37
2023-02-02T18:58:45.200Z,72.36
2023-02-02T19:02:01.239Z,72.31
2023-02-02T19:05:10.301Z,72.29
2023-02-02T19:08:25.524Z,72.44
2023-02-02T19:11:41.230Z,72.58
2023-02-02T19:14:50.077Z,72.45
2023-02-02T19:18:00.173Z,72.18
2023-02-02T19:21:19.226Z,72.61
2023-02-02T19:24:21.587Z,72.81
2023-02-02T19:27:37.232Z,72.83
2023-02-02T19:30:46.175Z,72.87
2023-02-02T19:34:01.219Z,73.06
2023-02-02T19:37:28.214Z,73.42
2023-02-02T19:40:46.224Z,73.58
2023-02-02T19:43:56.245Z,73.70
2023-02-02T19:47:20.742Z,73.85
2023-02-02T19:50:33.205Z,74.32
2023-02-02T19:53:48.246Z,74.59
2023-02-02T19:56:53.353Z,74.78
2023-02-02T20:00:22.397Z,74.81
2023-02-02T20:03:42.216Z,75.36
2023-02-02T20:07:04.271Z,75.34
2023-02-02T20:10:25.304Z,75.79
2023-02-02T20:13:49.264Z,76.02
2023-02-02T20:17:00.229Z,76.27
2023-02-02T20:20:23.650Z,76.39
2023-02-02T20:23:42.242Z,76.58
2023-02-02T20:26:56.931Z,76.66
2023-02-02T20:30:24.732Z,76.59
2023-02-02T20:33:40.230Z,76.85
2023-02-02T20:36:50.232Z,76.20
2023-02-02T20:40:08.279Z,76.63
2023-02-02T20:43:10.407Z,76.51
2023-02-02T20:46:25.222Z,77.18
2023-02-02T20:49:41.311Z,77.60
2023-02-02T20:52:50.305Z,77.67
2023-02-02T20:55:59.111Z,77.67
2023-02-02T20:59:07.530Z,77.99
2023-02-02T21:02:24.382Z,78.00
2023-02-02T21:05:26.326Z,77.74
2023-02-02T21:08:48.394Z,77.48
2023-02-02T21:11:57.273Z,77.54
2023-02-02T21:15:13.241Z,77.75
2023-02-02T21:18:21.261Z,77.54
2023-02-02T21:21:30.080Z,77.91
2023-02-02T21:24:45.262Z,78.12
2023-02-02T21:27:47.165Z,78.25
2023-02-02T21:31:02.457Z,78.28
2023-02-02T21:34:04.605Z,78.16
2023-02-02T21:37:21.372Z,77.73
2023-02-02T21:40:35.262Z,78.22
2023-02-02T21:43:43.973Z,78.07
2023-02-02T21:46:55.265Z,78.47
2023-02-02T21:50:18.140Z,78.37
2023-02-02T21:53:29.230Z,78.35
2023-02-02T21:56:39.420Z,78.81
2023-02-02T21:59:48.252Z,78.55
2023-02-02T22:02:58.252Z,78.24
2023-02-02T22:06:26.307Z,78.50
2023-02-02T22:09:51.281Z,78.29
2023-02-02T22:13:00.271Z,78.66
2023-02-02T22:16:17.456Z,78.49
2023-02-02T22:19:32.355Z,78.50
2023-02-02T22:22:52.280Z,78.78
2023-02-02T22:25:57.848Z,78.74
2023-02-02T22:29:24.281Z,78.56
2023-02-02T22:32:26.185Z,78.16
2023-02-02T22:35:42.293Z,78.04
2023-02-02T22:38:44.161Z,78.20
2023-02-02T22:41:59.287Z,78.12
2023-02-02T22:45:15.364Z,78.17
2023-02-02T22:48:23.312Z,78.63
2023-02-02T22:51:39.282Z,78.18
2023-02-02T22:54:41.102Z,77.78
2023-02-02T22:57:56.284Z,77.71
2023-02-02T23:00:58.174Z,77.73
2023-02-02T23:04:13.361Z,78.13
2023-02-02T23:07:21.649Z,77.14
2023-02-02T23:10:36.306Z,77.18
2023-02-02T23:13:38.341Z,77.03
2023-02-02T23:16:53.337Z,76.66
2023-02-02T23:19:55.256Z,76.55
2023-02-02T23:23:10.314Z,76.50
2023-02-02T23:26:18.317Z,76.25
2023-02-02T23:29:33.297Z,75.60
2023-02-02T23:32:42.304Z,75.46
2023-02-02T23:35:57.308Z,75.51
2023-02-02T23:39:05.983Z,75.30
2023-02-02T23:42:14.329Z,75.07
2023-02-02T23:45:23.112Z,74.63
2023-02-02T23:48:31.378Z,74.50
2023-02-02T23:51:40.307Z,74.78
2023-02-02T23:54:49.300Z,74.45
2023-02-02T23:58:05.293Z,74.31
